Time;durP1;ratioP1;P1;durP2;ratioP2;P2;SDS_P1;SDS_P2;PMS_P1;PMS_P2;Temp;Humidity;BMP_temperature;BMP_pressure;BME280_temperature;BME280_humidity;BME280_pressure;Samples;Min_cycle;Max_cycle;Signal;HPM_P1;HPM_P2
2022/09/15 00:01:17;;;;;;;8.70;8.40;;;19.60;99.90;;;;;;5030668;28;20922;-83
2022/09/15 00:03:46;;;;;;;9.20;8.70;;;19.40;99.90;;;;;;5024458;28;20473;-86
2022/09/15 00:06:14;;;;;;;8.90;8.60;;;19.50;99.90;;;;;;5046383;28;20440;-85
2022/09/15 00:08:44;;;;;;;8.63;8.37;;;19.60;99.90;;;;;;5030792;28;21210;-85
2022/09/15 00:11:17;;;;;;;8.67;8.37;;;19.60;99.90;;;;;;5027327;28;20547;-86
2022/09/15 00:13:46;;;;;;;8.90;8.60;;;19.50;99.90;;;;;;5020020;28;20456;-87
2022/09/15 00:16:14;;;;;;;9.33;8.53;;;19.50;99.90;;;;;;5029972;28;20456;-86
2022/09/15 00:18:44;;;;;;;8.50;8.30;;;19.50;99.90;;;;;;5031189;28;20452;-86
2022/09/15 00:21:15;;;;;;;8.87;8.57;;;19.50;99.90;;;;;;5046326;28;20452;-88
2022/09/15 00:23:45;;;;;;;8.73;8.33;;;19.50;99.90;;;;;;5032536;28;20473;-88
2022/09/15 00:26:15;;;;;;;8.20;8.00;;;19.40;99.90;;;;;;5045030;28;20464;-88
2022/09/15 00:28:44;;;;;;;8.13;7.90;;;19.40;99.90;;;;;;5028878;28;20452;-88
2022/09/15 00:31:13;;;;;;;8.17;7.87;;;19.50;99.90;;;;;;5032414;28;20534;-88
2022/09/15 00:33:42;;;;;;;8.47;8.13;;;19.50;99.90;;;;;;5031912;28;20476;-86
2022/09/15 00:36:13;;;;;;;8.37;8.07;;;19.40;99.90;;;;;;5030464;28;20465;-86
2022/09/15 00:38:41;;;;;;;8.60;8.40;;;19.50;99.90;;;;;;5030746;28;21108;-85
2022/09/15 00:41:13;;;;;;;8.60;8.10;;;19.40;99.90;;;;;;5032859;28;20558;-86
2022/09/15 00:43:45;;;;;;;8.13;7.77;;;19.50;99.90;;;;;;5029127;28;20903;-86
2022/09/15 00:46:14;;;;;;;7.93;7.60;;;19.40;99.90;;;;;;5032683;28;20456;-86
2022/09/15 00:48:55;;;;;;;8.50;8.10;;;19.40;99.90;;;;;;5030235;28;20813;-86
2022/09/15 00:51:28;;;;;;;8.03;7.83;;;19.40;99.90;;;;;;5021522;28;20951;-86
2022/09/15 00:53:57;;;;;;;8.90;8.60;;;19.40;99.90;;;;;;5031238;28;20486;-86
2022/09/15 00:56:27;;;;;;;9.27;8.87;;;19.50;99.90;;;;;;5033489;28;20484;-87
2022/09/15 00:59:00;;;;;;;9.10;8.33;;;19.50;99.90;;;;;;5029509;28;20543;-88
2022/09/15 01:01:30;;;;;;;8.40;8.20;;;19.50;99.90;;;;;;5029826;28;20495;-86
2022/09/15 01:03:59;;;;;;;9.37;8.90;;;19.40;99.90;;;;;;5032274;28;20472;-86
2022/09/15 01:06:30;;;;;;;8.80;8.60;;;19.50;99.90;;;;;;5030687;28;20453;-83
2022/09/15 01:09:04;;;;;;;9.30;8.90;;;19.40;99.90;;;;;;5028783;28;20457;-85
2022/09/15 01:11:34;;;;;;;8.90;8.50;;;19.50;99.90;;;;;;5030223;28;20507;-85
2022/09/15 01:14:03;;;;;;;8.40;8.20;;;19.40;99.90;;;;;;5029881;28;20585;-85
2022/09/15 01:16:42;;;;;;;8.60;8.30;;;19.40;99.90;;;;;;5029600;28;20502;-84
2022/09/15 01:19:36;;;;;;;8.67;8.37;;;19.30;99.90;;;;;;5024476;28;20454;-85
2022/09/15 01:22:15;;;;;;;8.00;7.80;;;19.20;99.90;;;;;;5028274;28;20498;-87
2022/09/15 01:25:01;;;;;;;8.50;8.23;;;19.30;99.90;;;;;;5031052;28;20459;-84
2022/09/15 01:27:58;;;;;;;9.20;8.90;;;19.30;99.90;;;;;;5030832;28;20437;-84
2022/09/15 01:30:33;;;;;;;8.80;8.60;;;19.20;99.90;;;;;;5030340;28;20502;-84
2022/09/15 01:33:13;;;;;;;8.70;8.40;;;19.20;44.70;;;;;;5034583;28;20530;-85
2022/09/15 01:35:54;;;;;;;8.93;8.47;;;19.10;99.90;;;;;;5029330;28;20444;-84
2022/09/15 01:38:30;;;;;;;8.20;7.90;;;19.20;1.00;;;;;;5030453;28;20559;-83
2022/09/15 01:41:05;;;;;;;7.77;7.47;;;19.20;1.00;;;;;;5032313;28;20474;-85
2022/09/15 01:43:36;;;;;;;7.97;7.77;;;19.20;1.00;;;;;;5033228;28;20460;-84
2022/09/15 01:46:07;;;;;;;7.97;7.70;;;19.20;1.00;;;;;;5031765;28;20447;-86
2022/09/15 01:48:37;;;;;;;7.80;7.60;;;19.20;99.90;;;;;;5039510;28;20440;-84
2022/09/15 01:51:06;;;;;;;7.53;7.33;;;19.20;99.90;;;;;;5031574;28;20451;-85
2022/09/15 01:53:35;;;;;;;7.73;7.40;;;19.20;99.90;;;;;;5034339;28;20472;-85
2022/09/15 01:56:08;;;;;;;7.47;7.27;;;19.20;99.90;;;;;;5032535;28;20506;-84
2022/09/15 01:58:37;;;;;;;7.30;7.10;;;19.20;99.90;;;;;;5039377;28;20644;-86
2022/09/15 02:01:13;;;;;;;7.70;7.40;;;19.20;99.90;;;;;;5034540;28;20472;-85
2022/09/15 02:03:47;;;;;;;7.80;7.50;;;19.20;54.70;;;;;;5034876;28;20537;-85
2022/09/15 02:06:22;;;;;;;8.00;7.70;;;19.10;99.90;;;;;;5033529;28;20456;-85
2022/09/15 02:08:54;;;;;;;7.70;7.47;;;19.20;1.00;;;;;;5033272;28;21262;-85
2022/09/15 02:11:26;;;;;;;7.00;6.83;;;19.20;99.90;;;;;;5032558;28;21050;-85
2022/09/15 02:14:01;;;;;;;7.20;7.00;;;19.10;99.90;;;;;;5033359;28;20467;-86
2022/09/15 02:16:35;;;;;;;7.40;7.20;;;19.10;99.90;;;;;;5032355;28;20491;-86
2022/09/15 02:19:18;;;;;;;7.60;7.33;;;19.10;1.00;;;;;;5031483;28;21011;-85
2022/09/15 02:22:01;;;;;;;7.07;6.87;;;19.10;1.00;;;;;;5030414;28;20467;-87
2022/09/15 02:24:36;;;;;;;7.20;7.00;;;19.00;1.00;;;;;;5031884;28;20448;-86
2022/09/15 02:27:09;;;;;;;7.70;7.50;;;19.10;10.30;;;;;;5032310;28;20538;-85
2022/09/15 02:29:38;;;;;;;7.80;7.60;;;19.10;1.00;;;;;;5032260;28;20445;-85
2022/09/15 02:32:09;;;;;;;7.40;7.20;;;19.10;1.00;;;;;;5030189;28;20515;-85
2022/09/15 02:34:44;;;;;;;7.97;7.77;;;19.10;1.00;;;;;;5046263;28;20483;-85
2022/09/15 02:37:13;;;;;;;7.70;7.40;;;19.10;1.00;;;;;;5033877;28;21185;-85
2022/09/15 02:39:47;;;;;;;7.50;7.20;;;19.00;1.00;;;;;;5032339;28;20514;-85
2022/09/15 02:42:23;;;;;;;7.40;7.20;;;19.00;1.00;;;;;;5033276;28;21006;-88
2022/09/15 02:44:52;;;;;;;7.80;7.60;;;19.10;87.40;;;;;;5031163;28;21045;-89
2022/09/15 02:47:22;;;;;;;7.60;7.40;;;19.00;99.90;;;;;;5033830;28;20543;-88
2022/09/15 02:49:50;;;;;;;7.87;7.57;;;19.10;99.90;;;;;;5033375;28;21183;-87
2022/09/15 02:52:18;;;;;;;7.63;7.43;;;19.10;25.60;;;;;;5033618;28;20476;-85
2022/09/15 02:54:46;;;;;;;7.40;7.30;;;19.00;99.90;;;;;;5036999;28;21002;-86
2022/09/15 02:57:15;;;;;;;7.77;7.57;;;18.90;99.90;;;;;;5031451;28;20480;-87
2022/09/15 03:02:30;;;;;;;7.80;7.50;;;18.90;99.90;;;;;;5030334;28;20475;-85
2022/09/15 03:04:58;;;;;;;8.10;7.90;;;18.80;99.90;;;;;;5031666;28;20528;-85
2022/09/15 03:07:27;;;;;;;8.33;7.83;;;18.80;99.90;;;;;;5032551;28;20855;-87
2022/09/15 03:09:55;;;;;;;7.40;7.17;;;18.80;99.90;;;;;;5032847;28;20459;-86
2022/09/15 03:12:23;;;;;;;7.60;7.50;;;18.80;99.90;;;;;;5032990;28;20472;-87
2022/09/15 03:14:52;;;;;;;7.87;7.57;;;18.70;99.90;;;;;;5032588;28;20452;-86
2022/09/15 03:17:20;;;;;;;8.10;7.90;;;18.80;99.90;;;;;;5032378;28;20769;-83
2022/09/15 03:19:49;;;;;;;7.80;7.50;;;18.70;99.90;;;;;;5031372;28;20468;-84
2022/09/15 03:22:17;;;;;;;7.73;7.40;;;18.70;99.90;;;;;;5030812;28;20477;-85
2022/09/15 03:24:46;;;;;;;7.63;7.43;;;18.80;99.90;;;;;;5024354;28;22685;-85
2022/09/15 03:27:14;;;;;;;8.23;7.90;;;18.80;99.90;;;;;;5031454;28;20453;-85
2022/09/15 03:29:42;;;;;;;7.80;7.60;;;18.70;99.90;;;;;;5031789;28;20984;-84
2022/09/15 03:32:10;;;;;;;8.03;7.83;;;18.60;99.90;;;;;;5032625;28;20488;-85
2022/09/15 03:34:38;;;;;;;8.37;8.17;;;18.60;1.00;;;;;;5028581;28;20488;-85
2022/09/15 03:37:08;;;;;;;8.03;7.70;;;18.70;99.90;;;;;;5036045;28;20440;-84
2022/09/15 03:39:36;;;;;;;8.03;7.67;;;18.60;99.90;;;;;;5030095;28;20468;-85
2022/09/15 03:42:04;;;;;;;7.70;7.50;;;18.60;99.90;;;;;;5031550;28;20506;-84
2022/09/15 03:44:32;;;;;;;7.93;7.73;;;18.60;1.00;;;;;;5029995;28;20518;-88
2022/09/15 03:47:00;;;;;;;7.93;7.60;;;18.50;1.00;;;;;;5031932;28;20536;-88
2022/09/15 03:49:30;;;;;;;7.80;7.50;;;18.40;1.00;;;;;;5030719;28;20451;-84
2022/09/15 03:51:58;;;;;;;8.50;8.20;;;18.50;1.00;;;;;;5036097;28;20496;-85
2022/09/15 03:54:27;;;;;;;8.50;8.20;;;18.50;1.00;;;;;;5031813;28;20441;-85
2022/09/15 03:56:55;;;;;;;8.00;7.80;;;18.50;1.00;;;;;;5037435;28;20480;-86
2022/09/15 03:59:23;;;;;;;9.00;8.50;;;18.40;1.00;;;;;;5031786;28;20530;-85
2022/09/15 04:01:51;;;;;;;8.00;7.80;;;18.50;1.00;;;;;;5027651;28;20448;-84
2022/09/15 04:04:20;;;;;;;9.23;8.93;;;18.50;99.90;;;;;;5029363;28;20585;-84
2022/09/15 04:06:48;;;;;;;7.93;7.73;;;18.50;1.00;;;;;;5028787;28;20480;-86
2022/09/15 04:09:16;;;;;;;7.53;7.30;;;18.40;1.00;;;;;;5030629;28;20451;-86
2022/09/15 04:11:46;;;;;;;8.23;7.93;;;18.40;1.00;;;;;;5029986;28;20452;-86
2022/09/15 04:14:15;;;;;;;8.20;7.90;;;18.40;1.00;;;;;;5029418;28;20460;-84
2022/09/15 04:16:43;;;;;;;8.93;8.43;;;18.40;1.00;;;;;;5035150;28;20457;-83
2022/09/15 04:19:11;;;;;;;8.50;8.30;;;18.40;1.00;;;;;;5028463;28;20476;-84
2022/09/15 04:21:39;;;;;;;8.27;8.00;;;18.50;1.00;;;;;;5030294;28;20451;-88
2022/09/15 04:24:07;;;;;;;8.77;8.37;;;18.40;1.00;;;;;;5025188;28;20465;-89
2022/09/15 04:26:37;;;;;;;7.70;7.60;;;18.20;1.00;;;;;;5030928;28;20472;-87
2022/09/15 04:29:12;;;;;;;8.30;8.10;;;18.30;1.00;;;;;;5030499;28;20499;-86
2022/09/15 04:31:40;;;;;;;8.40;8.20;;;18.30;1.00;;;;;;5031582;28;20455;-87
2022/09/15 04:34:09;;;;;;;9.00;8.80;;;18.30;1.00;;;;;;5030525;28;20468;-77
2022/09/15 04:36:37;;;;;;;8.07;7.87;;;18.20;1.00;;;;;;5025051;28;20464;-74
2022/09/15 04:39:05;;;;;;;8.47;8.17;;;18.40;99.90;;;;;;5026642;28;20587;-72
2022/09/15 04:41:34;;;;;;;8.23;8.03;;;18.40;99.90;;;;;;5028522;28;20891;-72
2022/09/15 04:44:02;;;;;;;8.00;7.60;;;18.50;99.90;;;;;;5030952;28;20562;-72
2022/09/15 04:46:31;;;;;;;8.60;8.27;;;18.50;99.90;;;;;;5032856;28;20522;-73
2022/09/15 04:49:00;;;;;;;8.37;8.07;;;18.50;99.90;;;;;;5031189;28;21433;-72
2022/09/15 04:51:28;;;;;;;9.20;8.80;;;18.40;99.90;;;;;;5024390;28;20522;-82
2022/09/15 04:53:56;;;;;;;8.40;8.20;;;18.40;99.90;;;;;;5026789;28;20480;-81
2022/09/15 04:56:26;;;;;;;8.33;8.20;;;18.40;99.90;;;;;;5029056;28;20487;-82
2022/09/15 04:58:55;;;;;;;9.33;8.93;;;18.30;99.90;;;;;;5026055;28;21031;-81
2022/09/15 05:01:34;;;;;;;8.90;8.70;;;18.30;99.90;;;;;;5034337;28;20455;-84
2022/09/15 05:04:04;;;;;;;9.57;9.37;;;18.40;99.90;;;;;;5029565;28;21022;-82
2022/09/15 05:06:33;;;;;;;9.17;8.87;;;18.40;99.90;;;;;;5029224;28;20463;-82
2022/09/15 05:09:03;;;;;;;9.13;8.80;;;18.50;4.10;;;;;;5025294;28;20440;-82
2022/09/15 05:11:37;;;;;;;8.73;8.53;;;18.50;26.80;;;;;;5024825;28;20459;-82
2022/09/15 05:14:06;;;;;;;8.70;8.50;;;18.40;93.80;;;;;;5032014;28;20468;-81
2022/09/15 05:16:36;;;;;;;10.00;9.80;;;18.40;99.90;;;;;;5030487;28;20448;-81
2022/09/15 05:19:04;;;;;;;8.83;8.63;;;18.40;99.90;;;;;;5032107;28;20492;-81
2022/09/15 05:21:33;;;;;;;8.67;8.47;;;18.40;99.90;;;;;;5033582;28;20467;-81
2022/09/15 05:24:02;;;;;;;8.90;8.70;;;18.40;99.90;;;;;;5033019;28;20468;-81
2022/09/15 05:26:30;;;;;;;9.07;8.87;;;18.40;99.90;;;;;;5034172;28;20838;-82
2022/09/15 05:28:59;;;;;;;9.10;8.80;;;18.50;99.90;;;;;;5033125;28;20526;-85
2022/09/15 05:31:30;;;;;;;9.23;9.03;;;18.50;1.00;;;;;;5033486;28;20483;-84
2022/09/15 05:34:01;;;;;;;9.00;8.80;;;18.20;99.90;;;;;;5036471;28;20489;-84
2022/09/15 05:36:30;;;;;;;8.97;8.77;;;18.30;99.90;;;;;;5035722;28;20464;-83
2022/09/15 05:38:58;;;;;;;9.87;9.57;;;18.30;99.90;;;;;;5026887;28;20546;-82
2022/09/15 05:41:27;;;;;;;9.20;9.00;;;18.30;99.90;;;;;;5029806;28;20503;-84
2022/09/15 05:43:57;;;;;;;9.77;9.47;;;18.30;99.90;;;;;;5045370;28;20483;-83
2022/09/15 05:46:27;;;;;;;9.67;9.47;;;18.30;99.90;;;;;;5031181;28;20490;-82
2022/09/15 05:48:57;;;;;;;9.00;8.80;;;18.40;99.90;;;;;;5031433;28;20503;-84
2022/09/15 05:51:28;;;;;;;9.20;8.87;;;18.40;99.90;;;;;;5030295;28;20514;-84
2022/09/15 05:53:57;;;;;;;8.97;8.77;;;18.20;99.90;;;;;;5033906;28;20477;-81
2022/09/15 05:56:25;;;;;;;9.73;9.43;;;18.40;99.90;;;;;;5028386;28;20444;-83
2022/09/15 05:58:53;;;;;;;9.20;9.00;;;18.40;99.90;;;;;;5029103;28;20444;-83
2022/09/15 06:01:23;;;;;;;9.67;9.37;;;18.50;99.90;;;;;;5026002;28;20582;-82
2022/09/15 06:03:52;;;;;;;9.10;8.90;;;18.50;99.90;;;;;;5024652;28;20487;-83
2022/09/15 06:06:21;;;;;;;9.93;9.67;;;18.40;99.90;;;;;;5025176;28;20486;-82
2022/09/15 06:08:54;;;;;;;10.33;9.93;;;18.40;99.90;;;;;;5021402;28;20510;-82
2022/09/15 06:11:27;;;;;;;9.90;9.70;;;18.40;99.90;;;;;;5024705;28;20553;-84
2022/09/15 06:13:58;;;;;;;10.53;10.30;;;18.50;99.90;;;;;;5035522;28;20486;-81
2022/09/15 06:16:26;;;;;;;9.40;9.20;;;18.40;99.90;;;;;;5027186;28;20444;-82
2022/09/15 06:18:54;;;;;;;9.33;9.13;;;18.40;99.90;;;;;;5025443;28;20519;-82
2022/09/15 06:21:25;;;;;;;9.47;9.27;;;18.50;99.90;;;;;;5029131;28;20550;-83
2022/09/15 06:23:55;;;;;;;9.30;9.10;;;18.50;99.90;;;;;;5027910;28;21022;-81
2022/09/15 06:26:24;;;;;;;9.90;9.60;;;18.50;99.90;;;;;;5030700;28;20463;-82
2022/09/15 06:28:54;;;;;;;9.60;9.40;;;18.50;99.90;;;;;;5032784;28;20539;-83
2022/09/15 06:31:23;;;;;;;9.97;9.67;;;18.40;99.90;;;;;;5033385;28;20452;-82
2022/09/15 06:33:53;;;;;;;9.87;9.67;;;18.30;99.90;;;;;;5033413;28;20476;-83
2022/09/15 06:36:23;;;;;;;9.97;9.77;;;18.40;99.90;;;;;;5032512;28;20536;-83
2022/09/15 06:38:51;;;;;;;9.63;9.43;;;18.40;99.90;;;;;;5033159;28;20453;-83
2022/09/15 06:41:21;;;;;;;11.00;10.60;;;18.40;99.90;;;;;;5032833;28;20476;-83
2022/09/15 06:43:49;;;;;;;9.90;9.70;;;18.50;99.90;;;;;;5031552;28;20523;-83
2022/09/15 06:46:19;;;;;;;10.50;10.20;;;18.50;1.00;;;;;;5033472;28;20895;-82
2022/09/15 06:48:50;;;;;;;11.43;11.13;;;18.40;1.00;;;;;;5033118;28;20467;-83
2022/09/15 06:51:19;;;;;;;10.20;9.90;;;18.50;1.00;;;;;;5032469;28;20547;-83
2022/09/15 06:53:48;;;;;;;9.77;9.57;;;18.40;1.00;;;;;;5032244;28;20472;-82
2022/09/15 06:56:18;;;;;;;10.10;9.80;;;18.50;1.00;;;;;;5032490;28;20460;-82
2022/09/15 06:58:48;;;;;;;10.10;9.70;;;18.50;1.00;;;;;;5032296;28;20860;-83
2022/09/15 07:01:21;;;;;;;9.80;9.60;;;18.50;1.00;;;;;;5031430;28;20476;-82
2022/09/15 07:03:50;;;;;;;10.10;9.80;;;18.50;1.00;;;;;;5033032;28;20460;-83
2022/09/15 07:06:18;;;;;;;10.20;9.90;;;18.50;1.00;;;;;;5032645;28;20476;-83
2022/09/15 07:08:46;;;;;;;10.53;10.10;;;18.60;1.00;;;;;;5036329;28;20556;-81
2022/09/15 07:11:15;;;;;;;10.57;10.30;;;18.50;1.00;;;;;;5037977;28;20951;-83
2022/09/15 07:13:43;;;;;;;11.33;10.83;;;18.50;1.00;;;;;;5038486;28;20563;-83
2022/09/15 07:16:13;;;;;;;10.50;10.30;;;18.60;1.00;;;;;;5035016;28;20497;-81
2022/09/15 07:18:43;;;;;;;10.70;10.50;;;18.60;1.00;;;;;;5033891;28;20943;-81
2022/09/15 07:21:14;;;;;;;10.77;10.47;;;18.60;1.00;;;;;;5034352;28;20530;-82
2022/09/15 07:23:43;;;;;;;10.80;10.60;;;18.50;1.00;;;;;;5033600;28;21174;-81
2022/09/15 07:26:14;;;;;;;11.43;11.13;;;18.60;1.00;;;;;;5030861;28;20467;-83
2022/09/15 07:28:44;;;;;;;11.70;11.50;;;18.60;1.00;;;;;;5031809;28;20457;-83
2022/09/15 07:31:16;;;;;;;12.57;12.27;;;18.50;1.00;;;;;;5031313;28;20582;-82
2022/09/15 07:33:46;;;;;;;11.80;11.60;;;18.50;1.00;;;;;;5031630;28;20518;-83
2022/09/15 07:36:15;;;;;;;12.77;12.37;;;18.50;1.00;;;;;;5026483;28;20521;-82
2022/09/15 07:38:48;;;;;;;11.60;11.30;;;18.60;1.00;;;;;;5028786;28;20451;-83
2022/09/15 07:41:20;;;;;;;11.50;11.20;;;18.60;1.00;;;;;;5029540;28;20838;-82
2022/09/15 07:43:50;;;;;;;11.40;11.10;;;18.60;1.00;;;;;;5031451;28;20470;-82
2022/09/15 07:46:22;;;;;;;11.33;11.13;;;18.60;1.00;;;;;;5032873;28;20888;-82
2022/09/15 07:48:55;;;;;;;11.67;11.37;;;18.70;1.00;;;;;;5032289;28;20491;-84
2022/09/15 07:51:24;;;;;;;11.37;11.13;;;18.70;1.00;;;;;;5024940;28;20511;-83
2022/09/15 07:53:55;;;;;;;11.33;11.13;;;18.60;1.00;;;;;;5020206;28;20476;-82
2022/09/15 07:56:25;;;;;;;11.50;11.30;;;18.60;1.00;;;;;;5031435;28;20539;-83
2022/09/15 07:58:55;;;;;;;12.50;12.10;;;18.60;1.00;;;;;;5032258;28;20451;-82
2022/09/15 08:01:26;;;;;;;11.90;11.60;;;18.60;1.00;;;;;;5032778;28;20563;-83
2022/09/15 08:03:55;;;;;;;12.97;12.57;;;18.60;1.00;;;;;;5033925;28;20479;-82
2022/09/15 08:06:26;;;;;;;11.83;11.60;;;18.50;1.00;;;;;;5032111;28;20556;-84
2022/09/15 08:08:56;;;;;;;12.73;12.23;;;18.60;1.00;;;;;;5033972;28;20463;-82
2022/09/15 08:11:29;;;;;;;12.47;12.03;;;18.50;1.00;;;;;;5036616;28;20827;-83
2022/09/15 08:14:02;;;;;;;12.40;12.10;;;18.50;1.00;;;;;;5036521;28;20480;-82
2022/09/15 08:16:32;;;;;;;12.80;12.53;;;18.50;1.00;;;;;;5033179;28;20464;-84
2022/09/15 08:19:04;;;;;;;12.80;12.50;;;18.50;1.00;;;;;;5032886;28;20493;-83
2022/09/15 08:21:33;;;;;;;11.93;11.63;;;18.50;1.00;;;;;;5029399;28;20547;-82
2022/09/15 08:24:01;;;;;;;12.97;12.67;;;18.40;1.00;;;;;;5030137;28;20472;-83
2022/09/15 08:26:30;;;;;;;12.87;12.47;;;18.50;1.00;;;;;;5031774;28;20535;-82
2022/09/15 08:28:59;;;;;;;13.10;12.70;;;18.50;1.00;;;;;;5032302;28;20455;-82
2022/09/15 08:31:27;;;;;;;13.50;13.20;;;18.50;1.00;;;;;;5030434;28;20612;-82
2022/09/15 08:33:57;;;;;;;14.43;13.83;;;18.50;1.00;;;;;;5031344;28;20534;-81
2022/09/15 08:36:26;;;;;;;13.90;13.50;;;18.60;1.00;;;;;;5032945;28;20552;-83
2022/09/15 08:38:55;;;;;;;14.57;14.07;;;18.60;1.00;;;;;;5032637;28;20444;-82
2022/09/15 08:41:27;;;;;;;13.90;13.50;;;18.60;1.00;;;;;;5030503;28;20484;-81
2022/09/15 08:44:02;;;;;;;13.30;13.00;;;18.70;1.00;;;;;;5030937;28;20538;-82
2022/09/15 08:46:36;;;;;;;13.50;13.10;;;18.70;1.00;;;;;;5033877;28;20685;-82
2022/09/15 08:49:13;;;;;;;13.70;13.30;;;18.70;1.00;;;;;;5031906;28;20451;-83
2022/09/15 08:51:46;;;;;;;13.37;13.10;;;18.70;1.00;;;;;;5036870;28;20460;-82
2022/09/15 08:54:20;;;;;;;13.03;12.73;;;18.70;1.00;;;;;;5036392;28;20907;-82
2022/09/15 08:56:48;;;;;;;12.80;12.50;;;18.80;1.00;;;;;;5037289;28;20479;-82
2022/09/15 08:59:17;;;;;;;14.07;13.27;;;18.80;1.00;;;;;;5037258;28;20440;-83
2022/09/15 09:02:22;;;;;;;14.50;13.63;;;18.80;1.00;;;;;;5035903;28;20577;-83
2022/09/15 09:05:02;;;;;;;13.50;13.10;;;18.80;1.00;;;;;;5036364;28;20563;-82
2022/09/15 09:07:46;;;;;;;13.60;13.30;;;18.80;1.00;;;;;;5037936;28;20630;-82
2022/09/15 09:10:24;;;;;;;13.60;13.20;;;18.80;1.00;;;;;;5037688;28;20517;-83
2022/09/15 09:13:05;;;;;;;12.57;12.37;;;18.70;1.00;;;;;;5037467;28;20526;-82
2022/09/15 09:15:47;;;;;;;13.30;13.00;;;18.70;1.00;;;;;;5040287;28;20507;-83
2022/09/15 09:18:38;;;;;;;13.33;13.00;;;18.90;1.00;;;;;;5038098;28;20456;-82
2022/09/15 09:21:17;;;;;;;14.47;13.80;;;18.90;1.00;;;;;;5025371;28;20494;-82
2022/09/15 09:23:50;;;;;;;13.47;13.17;;;18.90;1.00;;;;;;5029127;28;20979;-83
2022/09/15 09:26:19;;;;;;;14.10;13.70;;;19.00;1.00;;;;;;5037191;28;20975;-82
2022/09/15 09:28:53;;;;;;;14.20;13.80;;;19.10;1.00;;;;;;5039990;28;20475;-84
2022/09/15 09:31:23;;;;;;;14.60;14.30;;;19.10;1.00;;;;;;5042156;28;20476;-83
2022/09/15 09:33:57;;;;;;;13.87;13.57;;;19.10;1.00;;;;;;5041729;28;20484;-84
2022/09/15 09:36:27;;;;;;;13.80;13.50;;;19.00;1.00;;;;;;5036671;28;20555;-82
2022/09/15 09:38:57;;;;;;;13.23;13.00;;;19.10;1.00;;;;;;5038993;28;20471;-83
2022/09/15 09:41:34;;;;;;;13.33;12.93;;;18.90;1.00;;;;;;5038586;28;20456;-83
2022/09/15 09:44:04;;;;;;;13.30;13.00;;;18.80;1.00;;;;;;5036464;28;20537;-82
2022/09/15 09:46:33;;;;;;;13.27;12.97;;;18.90;1.00;;;;;;5036276;28;20456;-82
2022/09/15 09:49:04;;;;;;;13.50;13.10;;;19.00;1.00;;;;;;5035855;28;20459;-82
2022/09/15 09:51:40;;;;;;;13.03;12.73;;;19.00;1.00;;;;;;5036219;28;20448;-82
2022/09/15 09:54:15;;;;;;;12.90;12.70;;;19.10;1.00;;;;;;5036704;28;20490;-84
2022/09/15 09:56:44;;;;;;;13.87;13.30;;;19.20;1.00;;;;;;5037061;28;20436;-83
2022/09/15 09:59:34;;;;;;;13.33;12.93;;;19.20;1.00;;;;;;5036834;28;20444;-85
2022/09/15 10:02:14;;;;;;;13.40;12.90;;;19.20;1.00;;;;;;5023722;28;20477;-83
2022/09/15 10:04:44;;;;;;;13.77;13.40;;;19.30;1.00;;;;;;5033995;28;20460;-84
2022/09/15 10:07:16;;;;;;;13.70;13.40;;;19.40;1.00;;;;;;5035048;28;21091;-82
2022/09/15 10:09:53;;;;;;;13.77;13.40;;;19.40;1.00;;;;;;5035402;28;20445;-82
2022/09/15 10:12:25;;;;;;;14.07;13.67;;;19.30;1.00;;;;;;5033982;28;20899;-84
2022/09/15 10:14:56;;;;;;;13.20;13.00;;;19.30;1.00;;;;;;5026680;28;20454;-82
2022/09/15 10:17:27;;;;;;;13.30;13.00;;;19.10;1.00;;;;;;5033898;28;20455;-82
2022/09/15 10:19:57;;;;;;;13.20;12.90;;;19.20;1.00;;;;;;5031762;28;20510;-82
2022/09/15 10:22:33;;;;;;;13.10;12.80;;;19.10;1.00;;;;;;5032726;28;20929;-83
2022/09/15 10:25:03;;;;;;;12.60;12.40;;;19.00;1.00;;;;;;5033858;28;20471;-85
2022/09/15 10:27:32;;;;;;;12.50;12.23;;;18.90;1.00;;;;;;5033119;28;20499;-83
2022/09/15 10:30:17;;;;;;;12.20;12.00;;;18.70;1.00;;;;;;5033767;28;20814;-83
2022/09/15 10:32:45;;;;;;;11.90;11.70;;;18.60;1.00;;;;;;5032050;28;20614;-83
2022/09/15 10:35:15;;;;;;;12.30;12.10;;;18.60;1.00;;;;;;5031047;28;20452;-84
2022/09/15 10:37:59;;;;;;;11.70;11.50;;;18.40;1.00;;;;;;5032957;28;20799;-84
2022/09/15 10:40:45;;;;;;;11.73;11.23;;;18.40;1.00;;;;;;5027851;28;20501;-84
2022/09/15 10:43:33;;;;;;;11.20;11.00;;;18.40;1.00;;;;;;5032040;28;20492;-82
2022/09/15 10:46:07;;;;;;;11.00;10.70;;;18.20;1.00;;;;;;5032665;28;20439;-83
2022/09/15 10:48:45;;;;;;;10.90;10.60;;;18.30;1.00;;;;;;5031723;28;20974;-82
2022/09/15 10:51:28;;;;;;;11.03;10.83;;;18.10;1.00;;;;;;5030891;28;20506;-84
2022/09/15 10:54:10;;;;;;;10.87;10.67;;;18.10;1.00;;;;;;5032965;28;20530;-82
2022/09/15 10:56:42;;;;;;;10.33;10.13;;;18.10;1.00;;;;;;5032796;28;20535;-82
2022/09/15 10:59:43;;;;;;;10.80;10.50;;;18.10;1.00;;;;;;5032629;28;20462;-83
2022/09/15 11:02:43;;;;;;;10.70;10.50;;;18.00;1.00;;;;;;5027839;28;20451;-83
2022/09/15 11:05:34;;;;;;;9.93;9.70;;;18.00;1.00;;;;;;5016706;28;20881;-83
2022/09/15 11:08:26;;;;;;;10.23;10.03;;;17.90;1.00;;;;;;5029157;28;20471;-84
2022/09/15 11:11:03;;;;;;;10.50;10.30;;;17.90;1.00;;;;;;5030819;28;20988;-83
2022/09/15 11:13:41;;;;;;;9.70;9.57;;;17.90;1.00;;;;;;5028491;28;20470;-84
2022/09/15 11:16:27;;;;;;;10.37;10.07;;;17.80;1.00;;;;;;5020910;28;20517;-83
2022/09/15 11:19:10;;;;;;;10.23;10.03;;;17.90;1.00;;;;;;5032128;28;20502;-81
2022/09/15 11:21:43;;;;;;;10.00;9.60;;;17.90;1.00;;;;;;5032698;28;20846;-83
2022/09/15 11:24:31;;;;;;;10.20;9.80;;;17.80;1.00;;;;;;5035337;28;20491;-83
2022/09/15 11:27:05;;;;;;;9.87;9.57;;;17.50;1.00;;;;;;5029875;28;20472;-83
2022/09/15 11:29:43;;;;;;;9.97;9.77;;;17.50;1.00;;;;;;5038184;28;21035;-83
2022/09/15 11:32:15;;;;;;;10.80;10.20;;;17.40;1.00;;;;;;5033710;28;20550;-83
2022/09/15 11:34:52;;;;;;;10.53;10.13;;;17.30;1.00;;;;;;5037543;28;20458;-84
2022/09/15 11:37:25;;;;;;;9.90;9.70;;;17.30;1.00;;;;;;5040610;28;20457;-83
2022/09/15 11:39:58;;;;;;;9.50;9.30;;;17.40;1.00;;;;;;5038228;28;20895;-82
2022/09/15 11:42:39;;;;;;;10.17;9.90;;;17.30;1.00;;;;;;5040208;28;20490;-82
2022/09/15 11:45:15;;;;;;;9.13;9.03;;;17.30;1.00;;;;;;5040085;28;20467;-82
2022/09/15 11:47:47;;;;;;;8.90;8.70;;;17.40;1.00;;;;;;5039576;28;20460;-83
2022/09/15 11:50:20;;;;;;;9.57;9.37;;;17.40;1.00;;;;;;5031207;28;20452;-81
2022/09/15 11:52:55;;;;;;;9.40;9.20;;;17.40;1.00;;;;;;5034667;28;20494;-82
2022/09/15 11:55:33;;;;;;;9.60;9.30;;;17.40;1.00;;;;;;5038652;28;20506;-82
2022/09/15 11:58:17;;;;;;;9.67;9.37;;;17.50;1.00;;;;;;5039373;28;20525;-83
2022/09/15 12:00:54;;;;;;;9.07;8.87;;;17.40;1.00;;;;;;5027513;28;20495;-82
2022/09/15 12:03:27;;;;;;;9.57;9.37;;;17.50;1.00;;;;;;5036801;28;20518;-83
2022/09/15 12:06:01;;;;;;;9.97;9.67;;;17.60;1.00;;;;;;5037786;28;20648;-82
2022/09/15 12:08:34;;;;;;;10.27;9.80;;;17.50;1.00;;;;;;5037298;28;20487;-83
2022/09/15 12:11:07;;;;;;;9.73;9.53;;;17.60;99.90;;;;;;5035234;28;20477;-83
2022/09/15 12:13:38;;;;;;;10.40;10.10;;;17.50;99.90;;;;;;5038457;28;20477;-82
2022/09/15 12:16:08;;;;;;;9.00;8.80;;;17.40;99.90;;;;;;5035777;28;20447;-82
2022/09/15 12:18:40;;;;;;;9.10;8.90;;;17.20;99.90;;;;;;5038795;28;20455;-82
2022/09/15 12:21:19;;;;;;;8.73;8.43;;;17.40;99.90;;;;;;5038038;28;20457;-81
2022/09/15 12:23:54;;;;;;;9.30;9.00;;;17.20;99.90;;;;;;5034545;28;20478;-83
2022/09/15 12:26:25;;;;;;;9.67;9.10;;;17.30;1.00;;;;;;5038361;28;20458;-83
2022/09/15 12:29:01;;;;;;;9.60;9.10;;;17.40;1.00;;;;;;5038450;28;20462;-81
2022/09/15 12:31:32;;;;;;;8.70;8.50;;;17.30;90.00;;;;;;5036398;28;20534;-82
2022/09/15 12:34:03;;;;;;;9.50;9.20;;;17.00;94.60;;;;;;5037306;28;20919;-83
2022/09/15 12:36:39;;;;;;;9.00;8.70;;;17.00;99.90;;;;;;5037230;28;20449;-83
2022/09/15 12:39:31;;;;;;;9.50;9.10;;;17.20;1.00;;;;;;5026068;28;20489;-83
2022/09/15 12:42:10;;;;;;;8.90;8.60;;;17.30;99.90;;;;;;5027555;28;20466;-83
2022/09/15 12:44:45;;;;;;;8.93;8.50;;;17.30;99.90;;;;;;5036828;28;20833;-83
2022/09/15 12:47:28;;;;;;;9.73;9.17;;;17.40;99.90;;;;;;5036344;28;20467;-82
2022/09/15 12:50:00;;;;;;;9.70;9.27;;;17.40;99.90;;;;;;5036994;28;20459;-82
2022/09/15 12:52:28;;;;;;;9.30;9.00;;;17.50;25.30;;;;;;5036986;28;20510;-83
2022/09/15 12:55:00;;;;;;;9.10;8.77;;;17.50;99.90;;;;;;5036145;28;20462;-83
2022/09/15 12:57:32;;;;;;;9.50;9.00;;;17.50;1.00;;;;;;5031104;28;20954;-83
2022/09/15 13:00:31;;;;;;;10.03;9.53;;;17.50;99.90;;;;;;5035504;28;20505;-84
2022/09/15 13:03:01;;;;;;;9.70;9.40;;;17.50;1.00;;;;;;5034209;28;20539;-83
2022/09/15 13:06:15;;;;;;;10.17;9.50;;;17.60;1.00;;;;;;5036514;28;20440;-82
2022/09/15 13:09:16;;;;;;;9.27;8.97;;;17.60;1.00;;;;;;5036936;28;20451;-83
2022/09/15 13:11:49;;;;;;;9.40;8.87;;;17.60;23.40;;;;;;5027747;28;20600;-83
2022/09/15 13:14:24;;;;;;;8.50;8.10;;;17.60;24.70;;;;;;5033231;28;20484;-83
2022/09/15 13:16:59;;;;;;;8.73;8.10;;;17.60;1.00;;;;;;5032331;28;20459;-83